sensor_id;sensor_type;location;lat;lon;timestamp;P1;durP1;ratioP1;P2;durP2;ratioP2
17993;SDS011;9122;48.406;9.984;2023-08-17T00:00:10;5.03;;;4.63;;
17993;SDS011;9122;48.406;9.984;2023-08-17T00:02:57;4.93;;;4.47;;
17993;SDS011;9122;48.406;9.984;2023-08-17T00:05:42;5.25;;;4.75;;
17993;SDS011;9122;48.406;9.984;2023-08-17T00:08:26;5.20;;;4.80;;
17993;SDS011;9122;48.406;9.984;2023-08-17T00:11:11;5.30;;;4.90;;
17993;SDS011;9122;48.406;9.984;2023-08-17T00:13:55;4.82;;;4.47;;
17993;SDS011;9122;48.406;9.984;2023-08-17T00:16:39;5.97;;;5.18;;
17993;SDS011;9122;48.406;9.984;2023-08-17T00:19:25;6.35;;;5.30;;
17993;SDS011;9122;48.406;9.984;2023-08-17T00:22:10;5.18;;;4.80;;
17993;SDS011;9122;48.406;9.984;2023-08-17T00:24:54;5.85;;;4.88;;
17993;SDS011;9122;48.406;9.984;2023-08-17T00:27:39;5.35;;;4.88;;
17993;SDS011;9122;48.406;9.984;2023-08-17T00:30:23;5.47;;;4.82;;
17993;SDS011;9122;48.406;9.984;2023-08-17T00:33:08;4.90;;;4.60;;
17993;SDS011;9122;48.406;9.984;2023-08-17T00:35:52;7.50;;;5.03;;
17993;SDS011;9122;48.406;9.984;2023-08-17T00:38:37;6.80;;;5.78;;
17993;SDS011;9122;48.406;9.984;2023-08-17T00:41:22;5.32;;;4.93;;
17993;SDS011;9122;48.406;9.984;2023-08-17T00:44:06;5.97;;;5.47;;
17993;SDS011;9122;48.406;9.984;2023-08-17T00:46:51;5.85;;;5.45;;
17993;SDS011;9122;48.406;9.984;2023-08-17T00:49:35;5.53;;;5.03;;
17993;SDS011;9122;48.406;9.984;2023-08-17T00:52:20;5.47;;;4.93;;
17993;SDS011;9122;48.406;9.984;2023-08-17T00:55:04;5.03;;;4.70;;
17993;SDS011;9122;48.406;9.984;2023-08-17T00:57:50;5.53;;;5.05;;
17993;SDS011;9122;48.406;9.984;2023-08-17T01:00:35;5.57;;;5.07;;
17993;SDS011;9122;48.406;9.984;2023-08-17T01:03:20;5.15;;;4.78;;
17993;SDS011;9122;48.406;9.984;2023-08-17T01:06:07;5.63;;;5.22;;
17993;SDS011;9122;48.406;9.984;2023-08-17T01:08:52;6.30;;;5.00;;
17993;SDS011;9122;48.406;9.984;2023-08-17T01:11:41;5.60;;;5.20;;
17993;SDS011;9122;48.406;9.984;2023-08-17T01:14:56;5.03;;;4.63;;
17993;SDS011;9122;48.406;9.984;2023-08-17T01:18:04;5.68;;;5.28;;
17993;SDS011;9122;48.406;9.984;2023-08-17T01:21:06;5.50;;;4.97;;
17993;SDS011;9122;48.406;9.984;2023-08-17T01:23:57;5.80;;;5.28;;
17993;SDS011;9122;48.406;9.984;2023-08-17T01:26:43;5.40;;;5.00;;
17993;SDS011;9122;48.406;9.984;2023-08-17T01:29:28;5.50;;;5.10;;
17993;SDS011;9122;48.406;9.984;2023-08-17T01:32:14;5.30;;;4.90;;
17993;SDS011;9122;48.406;9.984;2023-08-17T01:35:50;5.70;;;5.20;;
17993;SDS011;9122;48.406;9.984;2023-08-17T01:38:40;5.00;;;4.60;;
17993;SDS011;9122;48.406;9.984;2023-08-17T01:41:25;5.80;;;5.20;;
17993;SDS011;9122;48.406;9.984;2023-08-17T01:44:10;7.68;;;4.75;;
17993;SDS011;9122;48.406;9.984;2023-08-17T01:46:54;5.72;;;5.10;;
17993;SDS011;9122;48.406;9.984;2023-08-17T01:49:39;5.35;;;4.85;;
17993;SDS011;9122;48.406;9.984;2023-08-17T01:52:24;5.20;;;4.80;;
17993;SDS011;9122;48.406;9.984;2023-08-17T01:55:12;6.03;;;5.43;;
17993;SDS011;9122;48.406;9.984;2023-08-17T01:57:56;6.13;;;4.97;;
17993;SDS011;9122;48.406;9.984;2023-08-17T02:00:41;5.50;;;5.05;;
17993;SDS011;9122;48.406;9.984;2023-08-17T02:03:25;5.85;;;5.35;;
17993;SDS011;9122;48.406;9.984;2023-08-17T02:06:12;5.40;;;4.90;;
17993;SDS011;9122;48.406;9.984;2023-08-17T02:08:58;5.25;;;4.85;;
17993;SDS011;9122;48.406;9.984;2023-08-17T02:11:42;9.52;;;5.43;;
17993;SDS011;9122;48.406;9.984;2023-08-17T02:14:27;6.00;;;5.25;;
17993;SDS011;9122;48.406;9.984;2023-08-17T02:17:11;4.88;;;4.57;;
17993;SDS011;9122;48.406;9.984;2023-08-17T02:19:56;8.98;;;5.22;;
17993;SDS011;9122;48.406;9.984;2023-08-17T02:22:40;4.68;;;4.28;;
17993;SDS011;9122;48.406;9.984;2023-08-17T02:25:25;4.53;;;4.22;;
17993;SDS011;9122;48.406;9.984;2023-08-17T02:28:10;5.05;;;4.65;;
17993;SDS011;9122;48.406;9.984;2023-08-17T02:30:55;7.00;;;4.55;;
17993;SDS011;9122;48.406;9.984;2023-08-17T02:33:40;5.30;;;4.38;;
17993;SDS011;9122;48.406;9.984;2023-08-17T02:36:24;4.55;;;4.25;;
17993;SDS011;9122;48.406;9.984;2023-08-17T02:39:08;4.25;;;3.95;;
17993;SDS011;9122;48.406;9.984;2023-08-17T02:41:56;5.50;;;4.85;;
17993;SDS011;9122;48.406;9.984;2023-08-17T02:44:40;4.53;;;4.20;;
17993;SDS011;9122;48.406;9.984;2023-08-17T02:47:24;5.63;;;4.60;;
17993;SDS011;9122;48.406;9.984;2023-08-17T02:50:09;5.13;;;4.50;;
17993;SDS011;9122;48.406;9.984;2023-08-17T02:52:54;4.07;;;3.78;;
17993;SDS011;9122;48.406;9.984;2023-08-17T02:55:38;4.32;;;3.67;;
17993;SDS011;9122;48.406;9.984;2023-08-17T02:58:22;5.03;;;3.92;;
17993;SDS011;9122;48.406;9.984;2023-08-17T03:01:06;4.43;;;4.05;;
17993;SDS011;9122;48.406;9.984;2023-08-17T03:03:51;3.75;;;3.50;;
17993;SDS011;9122;48.406;9.984;2023-08-17T03:06:36;3.97;;;3.70;;
17993;SDS011;9122;48.406;9.984;2023-08-17T03:09:20;4.50;;;4.13;;
17993;SDS011;9122;48.406;9.984;2023-08-17T03:12:04;4.78;;;4.38;;
17993;SDS011;9122;48.406;9.984;2023-08-17T03:14:49;5.00;;;4.57;;
17993;SDS011;9122;48.406;9.984;2023-08-17T03:17:33;4.30;;;4.00;;
17993;SDS011;9122;48.406;9.984;2023-08-17T03:20:17;4.88;;;4.50;;
17993;SDS011;9122;48.406;9.984;2023-08-17T03:23:02;4.43;;;4.07;;
17993;SDS011;9122;48.406;9.984;2023-08-17T03:25:53;4.95;;;4.47;;
17993;SDS011;9122;48.406;9.984;2023-08-17T03:28:38;4.78;;;4.38;;
17993;SDS011;9122;48.406;9.984;2023-08-17T03:31:22;4.78;;;4.35;;
17993;SDS011;9122;48.406;9.984;2023-08-17T03:34:06;5.15;;;4.75;;
17993;SDS011;9122;48.406;9.984;2023-08-17T03:36:50;5.13;;;4.68;;
17993;SDS011;9122;48.406;9.984;2023-08-17T03:39:35;4.95;;;4.65;;
17993;SDS011;9122;48.406;9.984;2023-08-17T03:42:19;4.57;;;4.22;;
17993;SDS011;9122;48.406;9.984;2023-08-17T03:45:04;5.00;;;4.45;;
17993;SDS011;9122;48.406;9.984;2023-08-17T03:47:49;4.53;;;4.20;;
17993;SDS011;9122;48.406;9.984;2023-08-17T03:50:33;4.60;;;4.20;;
17993;SDS011;9122;48.406;9.984;2023-08-17T03:53:17;5.25;;;4.85;;
17993;SDS011;9122;48.406;9.984;2023-08-17T03:56:01;4.65;;;4.25;;
17993;SDS011;9122;48.406;9.984;2023-08-17T03:58:46;5.70;;;4.78;;
17993;SDS011;9122;48.406;9.984;2023-08-17T04:01:30;6.45;;;4.63;;
17993;SDS011;9122;48.406;9.984;2023-08-17T04:04:14;5.25;;;4.82;;
17993;SDS011;9122;48.406;9.984;2023-08-17T04:06:58;6.20;;;5.47;;
17993;SDS011;9122;48.406;9.984;2023-08-17T04:09:43;7.03;;;6.43;;
17993;SDS011;9122;48.406;9.984;2023-08-17T04:12:28;5.95;;;5.55;;
17993;SDS011;9122;48.406;9.984;2023-08-17T04:15:12;5.60;;;5.25;;
17993;SDS011;9122;48.406;9.984;2023-08-17T04:17:56;5.70;;;5.20;;
17993;SDS011;9122;48.406;9.984;2023-08-17T04:20:40;5.38;;;4.95;;
17993;SDS011;9122;48.406;9.984;2023-08-17T04:23:25;5.13;;;4.78;;
17993;SDS011;9122;48.406;9.984;2023-08-17T04:26:09;5.35;;;4.60;;
17993;SDS011;9122;48.406;9.984;2023-08-17T04:28:53;4.90;;;4.57;;
17993;SDS011;9122;48.406;9.984;2023-08-17T04:31:37;5.38;;;4.95;;
17993;SDS011;9122;48.406;9.984;2023-08-17T04:34:21;4.35;;;4.10;;
17993;SDS011;9122;48.406;9.984;2023-08-17T04:37:06;5.68;;;4.43;;
17993;SDS011;9122;48.406;9.984;2023-08-17T04:39:50;5.03;;;4.32;;
17993;SDS011;9122;48.406;9.984;2023-08-17T04:42:34;4.80;;;4.40;;
17993;SDS011;9122;48.406;9.984;2023-08-17T04:45:19;5.00;;;4.60;;
17993;SDS011;9122;48.406;9.984;2023-08-17T04:48:04;5.03;;;4.60;;
17993;SDS011;9122;48.406;9.984;2023-08-17T04:50:50;5.40;;;5.00;;
17993;SDS011;9122;48.406;9.984;2023-08-17T04:53:35;4.55;;;4.25;;
17993;SDS011;9122;48.406;9.984;2023-08-17T04:56:20;5.03;;;4.63;;
17993;SDS011;9122;48.406;9.984;2023-08-17T04:59:04;4.78;;;4.13;;
17993;SDS011;9122;48.406;9.984;2023-08-17T05:01:48;4.28;;;4.00;;
17993;SDS011;9122;48.406;9.984;2023-08-17T05:04:33;4.53;;;4.13;;
17993;SDS011;9122;48.406;9.984;2023-08-17T05:07:17;4.57;;;4.20;;
17993;SDS011;9122;48.406;9.984;2023-08-17T05:10:02;5.07;;;4.53;;
17993;SDS011;9122;48.406;9.984;2023-08-17T05:12:46;4.68;;;4.28;;
17993;SDS011;9122;48.406;9.984;2023-08-17T05:15:31;4.53;;;4.10;;
17993;SDS011;9122;48.406;9.984;2023-08-17T05:18:16;4.97;;;4.05;;
17993;SDS011;9122;48.406;9.984;2023-08-17T05:21:00;4.30;;;3.92;;
17993;SDS011;9122;48.406;9.984;2023-08-17T05:23:45;4.60;;;4.20;;
17993;SDS011;9122;48.406;9.984;2023-08-17T05:26:29;4.75;;;4.43;;
17993;SDS011;9122;48.406;9.984;2023-08-17T05:29:14;4.05;;;3.83;;
17993;SDS011;9122;48.406;9.984;2023-08-17T05:31:58;5.78;;;4.35;;
17993;SDS011;9122;48.406;9.984;2023-08-17T05:34:42;4.57;;;4.18;;
17993;SDS011;9122;48.406;9.984;2023-08-17T05:37:26;5.38;;;4.82;;
17993;SDS011;9122;48.406;9.984;2023-08-17T05:40:11;5.20;;;4.80;;
17993;SDS011;9122;48.406;9.984;2023-08-17T05:42:55;5.65;;;4.47;;
17993;SDS011;9122;48.406;9.984;2023-08-17T05:45:39;6.03;;;4.88;;
17993;SDS011;9122;48.406;9.984;2023-08-17T05:48:24;5.00;;;4.63;;
17993;SDS011;9122;48.406;9.984;2023-08-17T05:51:09;4.97;;;4.57;;
17993;SDS011;9122;48.406;9.984;2023-08-17T05:53:53;5.30;;;4.90;;
17993;SDS011;9122;48.406;9.984;2023-08-17T05:56:38;4.93;;;4.47;;
17993;SDS011;9122;48.406;9.984;2023-08-17T05:59:28;5.47;;;4.38;;
17993;SDS011;9122;48.406;9.984;2023-08-17T06:02:12;5.43;;;4.75;;
17993;SDS011;9122;48.406;9.984;2023-08-17T06:04:57;4.75;;;4.35;;
17993;SDS011;9122;48.406;9.984;2023-08-17T06:07:42;6.10;;;4.95;;
17993;SDS011;9122;48.406;9.984;2023-08-17T06:10:26;5.53;;;4.38;;
17993;SDS011;9122;48.406;9.984;2023-08-17T06:13:11;8.18;;;4.70;;
17993;SDS011;9122;48.406;9.984;2023-08-17T06:15:58;4.88;;;4.47;;
17993;SDS011;9122;48.406;9.984;2023-08-17T06:18:42;5.10;;;4.22;;
17993;SDS011;9122;48.406;9.984;2023-08-17T06:21:26;6.03;;;5.13;;
17993;SDS011;9122;48.406;9.984;2023-08-17T06:24:10;4.97;;;4.60;;
17993;SDS011;9122;48.406;9.984;2023-08-17T06:26:54;5.63;;;4.35;;
17993;SDS011;9122;48.406;9.984;2023-08-17T06:29:38;6.72;;;4.82;;
17993;SDS011;9122;48.406;9.984;2023-08-17T06:32:22;6.60;;;5.60;;
17993;SDS011;9122;48.406;9.984;2023-08-17T06:35:07;6.32;;;5.72;;
17993;SDS011;9122;48.406;9.984;2023-08-17T06:37:52;7.65;;;6.32;;
17993;SDS011;9122;48.406;9.984;2023-08-17T06:40:40;10.45;;;8.43;;
17993;SDS011;9122;48.406;9.984;2023-08-17T06:43:24;9.95;;;6.20;;
17993;SDS011;9122;48.406;9.984;2023-08-17T06:46:09;9.63;;;6.53;;
17993;SDS011;9122;48.406;9.984;2023-08-17T06:48:54;7.68;;;6.88;;
17993;SDS011;9122;48.406;9.984;2023-08-17T06:51:38;8.95;;;6.72;;
17993;SDS011;9122;48.406;9.984;2023-08-17T06:54:22;6.35;;;5.85;;
17993;SDS011;9122;48.406;9.984;2023-08-17T06:57:06;8.38;;;6.60;;
17993;SDS011;9122;48.406;9.984;2023-08-17T06:59:50;7.68;;;7.07;;
17993;SDS011;9122;48.406;9.984;2023-08-17T07:02:34;7.57;;;6.88;;
17993;SDS011;9122;48.406;9.984;2023-08-17T07:05:19;6.60;;;5.38;;
17993;SDS011;9122;48.406;9.984;2023-08-17T07:08:03;7.25;;;6.47;;
17993;SDS011;9122;48.406;9.984;2023-08-17T07:10:48;11.88;;;6.05;;
17993;SDS011;9122;48.406;9.984;2023-08-17T07:13:32;7.63;;;6.20;;
17993;SDS011;9122;48.406;9.984;2023-08-17T07:16:16;8.82;;;6.20;;
17993;SDS011;9122;48.406;9.984;2023-08-17T07:19:02;8.27;;;6.43;;
17993;SDS011;9122;48.406;9.984;2023-08-17T07:21:46;6.97;;;6.25;;
17993;SDS011;9122;48.406;9.984;2023-08-17T07:24:31;6.50;;;6.00;;
17993;SDS011;9122;48.406;9.984;2023-08-17T07:27:15;5.93;;;5.40;;
17993;SDS011;9122;48.406;9.984;2023-08-17T07:29:59;5.28;;;4.78;;
17993;SDS011;9122;48.406;9.984;2023-08-17T07:32:43;6.75;;;6.13;;
17993;SDS011;9122;48.406;9.984;2023-08-17T07:35:28;6.18;;;5.68;;
17993;SDS011;9122;48.406;9.984;2023-08-17T07:38:13;6.38;;;5.78;;
17993;SDS011;9122;48.406;9.984;2023-08-17T07:40:58;6.70;;;6.13;;
17993;SDS011;9122;48.406;9.984;2023-08-17T07:43:42;8.65;;;6.45;;
17993;SDS011;9122;48.406;9.984;2023-08-17T07:46:27;5.75;;;4.75;;
17993;SDS011;9122;48.406;9.984;2023-08-17T07:49:11;6.13;;;5.63;;
17993;SDS011;9122;48.406;9.984;2023-08-17T07:51:55;6.70;;;5.45;;
17993;SDS011;9122;48.406;9.984;2023-08-17T07:54:39;6.00;;;5.60;;
17993;SDS011;9122;48.406;9.984;2023-08-17T07:57:23;5.72;;;5.32;;
17993;SDS011;9122;48.406;9.984;2023-08-17T08:00:07;5.90;;;5.35;;
17993;SDS011;9122;48.406;9.984;2023-08-17T08:02:52;5.85;;;5.35;;
17993;SDS011;9122;48.406;9.984;2023-08-17T08:05:36;11.43;;;6.40;;
17993;SDS011;9122;48.406;9.984;2023-08-17T08:08:21;6.05;;;5.50;;
17993;SDS011;9122;48.406;9.984;2023-08-17T08:11:05;7.20;;;6.50;;
17993;SDS011;9122;48.406;9.984;2023-08-17T08:13:50;6.65;;;5.60;;
17993;SDS011;9122;48.406;9.984;2023-08-17T08:16:34;7.03;;;6.22;;
17993;SDS011;9122;48.406;9.984;2023-08-17T08:19:18;5.95;;;5.30;;
17993;SDS011;9122;48.406;9.984;2023-08-17T08:22:03;7.13;;;6.30;;
17993;SDS011;9122;48.406;9.984;2023-08-17T08:24:47;7.03;;;6.10;;
17993;SDS011;9122;48.406;9.984;2023-08-17T08:27:31;10.02;;;5.93;;
17993;SDS011;9122;48.406;9.984;2023-08-17T08:30:16;6.22;;;5.72;;
17993;SDS011;9122;48.406;9.984;2023-08-17T08:33:02;7.38;;;6.68;;
17993;SDS011;9122;48.406;9.984;2023-08-17T08:35:46;7.05;;;6.53;;
17993;SDS011;9122;48.406;9.984;2023-08-17T08:38:31;10.40;;;6.28;;
17993;SDS011;9122;48.406;9.984;2023-08-17T08:41:15;5.70;;;5.30;;
17993;SDS011;9122;48.406;9.984;2023-08-17T08:44:01;5.75;;;5.35;;
17993;SDS011;9122;48.406;9.984;2023-08-17T08:46:45;7.70;;;7.00;;
17993;SDS011;9122;48.406;9.984;2023-08-17T08:49:31;6.40;;;5.90;;
17993;SDS011;9122;48.406;9.984;2023-08-17T08:52:19;8.07;;;5.82;;
17993;SDS011;9122;48.406;9.984;2023-08-17T08:55:17;10.25;;;6.97;;
17993;SDS011;9122;48.406;9.984;2023-08-17T08:58:03;13.55;;;7.50;;
17993;SDS011;9122;48.406;9.984;2023-08-17T09:00:49;6.07;;;5.38;;
17993;SDS011;9122;48.406;9.984;2023-08-17T09:03:33;7.63;;;6.18;;
17993;SDS011;9122;48.406;9.984;2023-08-17T09:06:18;6.97;;;6.28;;
17993;SDS011;9122;48.406;9.984;2023-08-17T09:09:03;6.90;;;6.38;;
17993;SDS011;9122;48.406;9.984;2023-08-17T09:11:48;6.95;;;6.25;;
17993;SDS011;9122;48.406;9.984;2023-08-17T09:14:32;7.80;;;6.50;;
17993;SDS011;9122;48.406;9.984;2023-08-17T09:17:26;6.57;;;6.07;;
17993;SDS011;9122;48.406;9.984;2023-08-17T09:20:11;6.88;;;5.75;;
17993;SDS011;9122;48.406;9.984;2023-08-17T09:22:56;7.13;;;6.53;;
17993;SDS011;9122;48.406;9.984;2023-08-17T09:25:48;6.15;;;5.55;;
17993;SDS011;9122;48.406;9.984;2023-08-17T09:28:36;8.13;;;7.43;;
17993;SDS011;9122;48.406;9.984;2023-08-17T09:31:25;6.72;;;6.10;;
17993;SDS011;9122;48.406;9.984;2023-08-17T09:34:10;12.35;;;8.07;;
17993;SDS011;9122;48.406;9.984;2023-08-17T09:36:54;9.93;;;6.00;;
17993;SDS011;9122;48.406;9.984;2023-08-17T09:39:39;6.28;;;5.78;;
17993;SDS011;9122;48.406;9.984;2023-08-17T09:42:23;10.50;;;6.72;;
17993;SDS011;9122;48.406;9.984;2023-08-17T09:45:09;6.43;;;5.82;;
17993;SDS011;9122;48.406;9.984;2023-08-17T09:47:53;7.75;;;6.00;;
17993;SDS011;9122;48.406;9.984;2023-08-17T09:50:37;8.60;;;6.78;;
17993;SDS011;9122;48.406;9.984;2023-08-17T09:53:22;6.45;;;5.72;;
17993;SDS011;9122;48.406;9.984;2023-08-17T09:56:06;5.82;;;5.38;;
17993;SDS011;9122;48.406;9.984;2023-08-17T09:58:54;5.80;;;5.10;;
17993;SDS011;9122;48.406;9.984;2023-08-17T10:01:39;5.53;;;5.03;;
17993;SDS011;9122;48.406;9.984;2023-08-17T10:04:24;4.70;;;4.40;;
17993;SDS011;9122;48.406;9.984;2023-08-17T10:07:11;11.43;;;4.65;;
17993;SDS011;9122;48.406;9.984;2023-08-17T10:09:59;5.95;;;4.63;;
17993;SDS011;9122;48.406;9.984;2023-08-17T10:13:31;4.90;;;4.50;;
17993;SDS011;9122;48.406;9.984;2023-08-17T10:16:29;5.00;;;4.70;;
17993;SDS011;9122;48.406;9.984;2023-08-17T10:22:25;4.88;;;4.47;;
17993;SDS011;9122;48.406;9.984;2023-08-17T10:25:14;5.55;;;4.38;;
17993;SDS011;9122;48.406;9.984;2023-08-17T10:28:00;8.15;;;4.55;;
17993;SDS011;9122;48.406;9.984;2023-08-17T10:30:47;4.47;;;4.15;;
17993;SDS011;9122;48.406;9.984;2023-08-17T10:33:32;4.47;;;4.20;;
17993;SDS011;9122;48.406;9.984;2023-08-17T10:36:16;4.82;;;4.50;;
17993;SDS011;9122;48.406;9.984;2023-08-17T10:39:21;4.50;;;4.15;;
17993;SDS011;9122;48.406;9.984;2023-08-17T10:42:06;4.68;;;4.38;;
17993;SDS011;9122;48.406;9.984;2023-08-17T10:44:50;4.93;;;4.53;;
17993;SDS011;9122;48.406;9.984;2023-08-17T10:47:34;4.18;;;3.92;;
17993;SDS011;9122;48.406;9.984;2023-08-17T10:50:21;4.43;;;4.13;;
17993;SDS011;9122;48.406;9.984;2023-08-17T10:53:10;5.22;;;4.80;;
17993;SDS011;9122;48.406;9.984;2023-08-17T10:55:57;5.45;;;4.95;;
17993;SDS011;9122;48.406;9.984;2023-08-17T10:58:42;4.40;;;4.10;;
17993;SDS011;9122;48.406;9.984;2023-08-17T11:01:34;4.50;;;3.95;;
17993;SDS011;9122;48.406;9.984;2023-08-17T11:04:20;6.28;;;4.60;;
17993;SDS011;9122;48.406;9.984;2023-08-17T11:07:05;6.10;;;4.30;;
17993;SDS011;9122;48.406;9.984;2023-08-17T11:09:59;4.80;;;4.47;;
17993;SDS011;9122;48.406;9.984;2023-08-17T11:12:45;4.43;;;4.03;;
17993;SDS011;9122;48.406;9.984;2023-08-17T11:18:22;4.88;;;4.10;;
17993;SDS011;9122;48.406;9.984;2023-08-17T11:21:07;4.72;;;4.43;;
17993;SDS011;9122;48.406;9.984;2023-08-17T11:23:55;6.35;;;4.68;;
17993;SDS011;9122;48.406;9.984;2023-08-17T11:26:40;4.45;;;4.05;;
17993;SDS011;9122;48.406;9.984;2023-08-17T11:29:25;8.05;;;4.43;;
17993;SDS011;9122;48.406;9.984;2023-08-17T11:32:09;4.35;;;4.05;;
17993;SDS011;9122;48.406;9.984;2023-08-17T11:34:55;5.18;;;4.75;;
17993;SDS011;9122;48.406;9.984;2023-08-17T11:37:39;5.35;;;4.85;;
17993;SDS011;9122;48.406;9.984;2023-08-17T11:40:24;8.25;;;5.38;;
17993;SDS011;9122;48.406;9.984;2023-08-17T11:43:10;7.50;;;5.40;;
17993;SDS011;9122;48.406;9.984;2023-08-17T11:45:55;8.68;;;5.63;;
17993;SDS011;9122;48.406;9.984;2023-08-17T11:48:40;5.53;;;4.35;;
17993;SDS011;9122;48.406;9.984;2023-08-17T11:51:28;6.78;;;5.07;;
17993;SDS011;9122;48.406;9.984;2023-08-17T11:54:14;7.75;;;5.05;;
17993;SDS011;9122;48.406;9.984;2023-08-17T11:56:58;4.50;;;4.07;;
17993;SDS011;9122;48.406;9.984;2023-08-17T11:59:43;5.82;;;5.32;;
17993;SDS011;9122;48.406;9.984;2023-08-17T12:02:27;6.15;;;5.07;;
17993;SDS011;9122;48.406;9.984;2023-08-17T12:05:12;4.57;;;4.28;;
17993;SDS011;9122;48.406;9.984;2023-08-17T12:07:56;8.05;;;4.57;;
17993;SDS011;9122;48.406;9.984;2023-08-17T12:10:41;7.30;;;5.15;;
17993;SDS011;9122;48.406;9.984;2023-08-17T12:13:34;5.05;;;4.75;;
17993;SDS011;9122;48.406;9.984;2023-08-17T12:16:19;5.00;;;4.35;;
17993;SDS011;9122;48.406;9.984;2023-08-17T12:19:04;5.25;;;4.80;;
17993;SDS011;9122;48.406;9.984;2023-08-17T12:21:49;5.10;;;4.68;;
17993;SDS011;9122;48.406;9.984;2023-08-17T12:24:33;5.70;;;5.32;;
17993;SDS011;9122;48.406;9.984;2023-08-17T12:27:19;5.57;;;4.95;;
17993;SDS011;9122;48.406;9.984;2023-08-17T12:30:26;5.40;;;4.93;;
17993;SDS011;9122;48.406;9.984;2023-08-17T12:33:12;9.05;;;5.43;;
17993;SDS011;9122;48.406;9.984;2023-08-17T12:35:57;5.55;;;5.15;;
17993;SDS011;9122;48.406;9.984;2023-08-17T12:38:42;8.30;;;4.78;;
17993;SDS011;9122;48.406;9.984;2023-08-17T12:41:46;5.25;;;4.82;;
17993;SDS011;9122;48.406;9.984;2023-08-17T12:44:31;5.82;;;5.32;;
17993;SDS011;9122;48.406;9.984;2023-08-17T12:47:15;6.57;;;4.70;;
17993;SDS011;9122;48.406;9.984;2023-08-17T12:50:00;5.10;;;4.70;;
17993;SDS011;9122;48.406;9.984;2023-08-17T12:52:47;7.10;;;5.22;;
17993;SDS011;9122;48.406;9.984;2023-08-17T12:55:31;6.18;;;5.65;;
17993;SDS011;9122;48.406;9.984;2023-08-17T12:58:16;5.40;;;4.93;;
17993;SDS011;9122;48.406;9.984;2023-08-17T13:01:00;6.25;;;4.40;;
17993;SDS011;9122;48.406;9.984;2023-08-17T13:03:44;4.57;;;4.28;;
17993;SDS011;9122;48.406;9.984;2023-08-17T13:06:29;5.35;;;4.85;;
17993;SDS011;9122;48.406;9.984;2023-08-17T13:09:13;5.55;;;5.13;;
17993;SDS011;9122;48.406;9.984;2023-08-17T13:11:58;9.38;;;5.15;;
17993;SDS011;9122;48.406;9.984;2023-08-17T13:14:42;5.80;;;5.18;;
17993;SDS011;9122;48.406;9.984;2023-08-17T13:17:27;5.18;;;4.70;;
17993;SDS011;9122;48.406;9.984;2023-08-17T13:20:11;5.82;;;5.35;;
17993;SDS011;9122;48.406;9.984;2023-08-17T13:22:55;5.45;;;3.22;;
17993;SDS011;9122;48.406;9.984;2023-08-17T13:25:39;2.35;;;2.20;;
17993;SDS011;9122;48.406;9.984;2023-08-17T13:28:24;3.72;;;2.53;;
17993;SDS011;9122;48.406;9.984;2023-08-17T13:31:09;4.85;;;2.45;;
17993;SDS011;9122;48.406;9.984;2023-08-17T13:33:53;3.13;;;2.83;;
17993;SDS011;9122;48.406;9.984;2023-08-17T13:36:37;2.83;;;2.25;;
17993;SDS011;9122;48.406;9.984;2023-08-17T13:39:22;2.72;;;2.25;;
17993;SDS011;9122;48.406;9.984;2023-08-17T13:42:06;2.25;;;2.03;;
17993;SDS011;9122;48.406;9.984;2023-08-17T13:44:51;2.17;;;2.03;;
17993;SDS011;9122;48.406;9.984;2023-08-17T13:47:37;2.05;;;1.95;;
17993;SDS011;9122;48.406;9.984;2023-08-17T13:50:21;2.33;;;2.17;;
17993;SDS011;9122;48.406;9.984;2023-08-17T13:53:06;2.13;;;2.03;;
17993;SDS011;9122;48.406;9.984;2023-08-17T13:55:50;2.65;;;2.40;;
17993;SDS011;9122;48.406;9.984;2023-08-17T13:58:35;5.05;;;2.95;;
17993;SDS011;9122;48.406;9.984;2023-08-17T14:01:19;3.47;;;3.08;;
17993;SDS011;9122;48.406;9.984;2023-08-17T14:04:04;3.20;;;2.90;;
17993;SDS011;9122;48.406;9.984;2023-08-17T14:06:51;4.55;;;3.53;;
17993;SDS011;9122;48.406;9.984;2023-08-17T14:09:36;4.53;;;3.30;;
17993;SDS011;9122;48.406;9.984;2023-08-17T14:12:20;4.05;;;2.75;;
17993;SDS011;9122;48.406;9.984;2023-08-17T14:15:04;4.15;;;2.80;;
17993;SDS011;9122;48.406;9.984;2023-08-17T14:17:49;3.08;;;2.85;;
17993;SDS011;9122;48.406;9.984;2023-08-17T14:20:33;3.17;;;2.95;;
17993;SDS011;9122;48.406;9.984;2023-08-17T14:23:17;2.35;;;2.25;;
17993;SDS011;9122;48.406;9.984;2023-08-17T14:26:01;2.40;;;2.30;;
17993;SDS011;9122;48.406;9.984;2023-08-17T14:28:47;2.80;;;2.60;;
17993;SDS011;9122;48.406;9.984;2023-08-17T14:31:31;4.32;;;2.47;;
17993;SDS011;9122;48.406;9.984;2023-08-17T14:34:15;3.08;;;2.55;;
17993;SDS011;9122;48.406;9.984;2023-08-17T14:37:00;2.95;;;2.60;;
17993;SDS011;9122;48.406;9.984;2023-08-17T14:39:44;5.22;;;2.60;;
17993;SDS011;9122;48.406;9.984;2023-08-17T14:42:30;3.28;;;2.88;;
17993;SDS011;9122;48.406;9.984;2023-08-17T14:45:14;3.08;;;2.85;;
17993;SDS011;9122;48.406;9.984;2023-08-17T14:47:59;3.60;;;3.00;;
17993;SDS011;9122;48.406;9.984;2023-08-17T14:50:44;4.22;;;3.83;;
17993;SDS011;9122;48.406;9.984;2023-08-17T14:53:28;4.53;;;3.45;;
17993;SDS011;9122;48.406;9.984;2023-08-17T14:56:12;5.30;;;3.15;;
17993;SDS011;9122;48.406;9.984;2023-08-17T14:58:56;3.15;;;2.88;;
17993;SDS011;9122;48.406;9.984;2023-08-17T15:01:40;3.25;;;3.05;;
17993;SDS011;9122;48.406;9.984;2023-08-17T15:04:24;3.90;;;2.80;;
17993;SDS011;9122;48.406;9.984;2023-08-17T15:07:08;6.10;;;3.10;;
17993;SDS011;9122;48.406;9.984;2023-08-17T15:09:54;7.70;;;3.30;;
17993;SDS011;9122;48.406;9.984;2023-08-17T15:12:39;6.82;;;3.35;;
17993;SDS011;9122;48.406;9.984;2023-08-17T15:15:23;4.35;;;3.83;;
17993;SDS011;9122;48.406;9.984;2023-08-17T15:18:07;6.65;;;3.95;;
17993;SDS011;9122;48.406;9.984;2023-08-17T15:20:52;5.35;;;3.03;;
17993;SDS011;9122;48.406;9.984;2023-08-17T15:23:36;7.78;;;3.90;;
17993;SDS011;9122;48.406;9.984;2023-08-17T15:26:21;4.15;;;3.85;;
17993;SDS011;9122;48.406;9.984;2023-08-17T15:29:05;4.63;;;4.22;;
17993;SDS011;9122;48.406;9.984;2023-08-17T15:31:49;6.38;;;3.85;;
17993;SDS011;9122;48.406;9.984;2023-08-17T15:34:34;7.07;;;4.25;;
17993;SDS011;9122;48.406;9.984;2023-08-17T15:37:18;7.55;;;3.63;;
17993;SDS011;9122;48.406;9.984;2023-08-17T15:40:03;6.10;;;4.07;;
17993;SDS011;9122;48.406;9.984;2023-08-17T15:42:48;6.93;;;3.90;;
17993;SDS011;9122;48.406;9.984;2023-08-17T15:45:33;5.40;;;4.07;;
17993;SDS011;9122;48.406;9.984;2023-08-17T15:48:17;4.38;;;3.92;;
17993;SDS011;9122;48.406;9.984;2023-08-17T15:51:02;6.32;;;4.32;;
17993;SDS011;9122;48.406;9.984;2023-08-17T15:53:46;5.20;;;4.70;;
17993;SDS011;9122;48.406;9.984;2023-08-17T15:56:30;6.43;;;3.95;;
17993;SDS011;9122;48.406;9.984;2023-08-17T15:59:15;7.00;;;4.20;;
17993;SDS011;9122;48.406;9.984;2023-08-17T16:01:59;4.95;;;3.75;;
17993;SDS011;9122;48.406;9.984;2023-08-17T16:04:44;5.00;;;4.38;;
17993;SDS011;9122;48.406;9.984;2023-08-17T16:07:30;5.18;;;3.53;;
17993;SDS011;9122;48.406;9.984;2023-08-17T16:10:14;4.78;;;4.38;;
17993;SDS011;9122;48.406;9.984;2023-08-17T16:12:59;6.90;;;4.13;;
17993;SDS011;9122;48.406;9.984;2023-08-17T16:15:43;4.20;;;3.75;;
17993;SDS011;9122;48.406;9.984;2023-08-17T16:18:28;4.50;;;4.10;;
17993;SDS011;9122;48.406;9.984;2023-08-17T16:21:12;4.95;;;3.95;;
17993;SDS011;9122;48.406;9.984;2023-08-17T16:23:57;5.95;;;4.50;;
17993;SDS011;9122;48.406;9.984;2023-08-17T16:26:41;11.82;;;4.15;;
17993;SDS011;9122;48.406;9.984;2023-08-17T16:29:26;6.55;;;4.13;;
17993;SDS011;9122;48.406;9.984;2023-08-17T16:32:11;4.72;;;4.20;;
17993;SDS011;9122;48.406;9.984;2023-08-17T16:34:55;4.07;;;3.70;;
17993;SDS011;9122;48.406;9.984;2023-08-17T16:37:39;5.40;;;4.15;;
17993;SDS011;9122;48.406;9.984;2023-08-17T16:40:23;13.10;;;4.13;;
17993;SDS011;9122;48.406;9.984;2023-08-17T16:43:08;7.43;;;5.13;;
17993;SDS011;9122;48.406;9.984;2023-08-17T16:45:52;5.82;;;5.18;;
17993;SDS011;9122;48.406;9.984;2023-08-17T16:48:36;7.70;;;5.82;;
17993;SDS011;9122;48.406;9.984;2023-08-17T16:51:20;6.80;;;4.47;;
17993;SDS011;9122;48.406;9.984;2023-08-17T16:54:05;5.03;;;3.75;;
17993;SDS011;9122;48.406;9.984;2023-08-17T16:56:49;4.30;;;4.00;;